createdAt,value
2022-12-04T00:01:06.227Z,93.10
2022-12-04T00:03:35.409Z,93.20
2022-12-04T00:06:07.627Z,93.10
2022-12-04T00:08:35.653Z,93.20
2022-12-04T00:11:06.960Z,93.10
2022-12-04T00:13:34.867Z,93.40
2022-12-04T00:16:04.691Z,93.30
2022-12-04T00:18:33.093Z,93.40
2022-12-04T00:21:00.709Z,93.50
2022-12-04T00:23:28.958Z,93.40
2022-12-04T00:26:04.318Z,93.40
2022-12-04T00:28:31.840Z,93.20
2022-12-04T00:30:59.357Z,93.10
2022-12-04T00:33:26.925Z,92.80
2022-12-04T00:36:01.263Z,92.40
2022-12-04T00:38:29.258Z,92.80
2022-12-04T00:40:56.823Z,92.50
2022-12-04T00:43:25.475Z,92.30
2022-12-04T00:45:53.069Z,92.70
2022-12-04T00:48:21.501Z,92.90
2022-12-04T00:50:49.752Z,92.40
2022-12-04T00:53:17.675Z,92.40
2022-12-04T00:58:20.889Z,92.20
2022-12-04T01:00:49.347Z,92.40
2022-12-04T01:03:17.132Z,92.60
2022-12-04T01:05:45.613Z,91.90
2022-12-04T01:08:13.936Z,91.90
2022-12-04T01:10:42.759Z,91.40
2022-12-04T01:13:10.372Z,91.60
2022-12-04T01:15:44.434Z,91.60
2022-12-04T01:18:12.560Z,91.30
2022-12-04T01:20:40.415Z,91.50
2022-12-04T01:23:08.067Z,91.50
2022-12-04T01:25:36.399Z,91.30
2022-12-04T01:28:04.078Z,91.40
2022-12-04T01:30:31.743Z,91.40
2022-12-04T01:33:01.230Z,91.20
2022-12-04T01:35:29.516Z,91.20
2022-12-04T01:37:58.106Z,91.10
2022-12-04T01:40:26.017Z,91.10
2022-12-04T01:42:53.719Z,91.10
2022-12-04T01:45:45.213Z,90.90
2022-12-04T01:48:32.862Z,91.10
2022-12-04T01:51:23.877Z,91.10
2022-12-04T01:53:52.965Z,90.80
2022-12-04T01:56:24.550Z,90.90
2022-12-04T01:58:54.080Z,90.80
2022-12-04T02:01:22.262Z,91.20
2022-12-04T02:03:53.779Z,90.80
2022-12-04T02:06:21.645Z,90.90
2022-12-04T02:08:49.167Z,90.70
2022-12-04T02:11:23.944Z,90.60
2022-12-04T02:14:00.177Z,90.80
2022-12-04T02:16:36.248Z,90.60
2022-12-04T02:19:37.012Z,90.80
2022-12-04T02:22:09.398Z,90.50
2022-12-04T02:24:45.346Z,90.40
2022-12-04T02:27:35.165Z,90.30
2022-12-04T02:30:21.639Z,90.30
2022-12-04T02:32:59.824Z,90.30
2022-12-04T02:35:29.709Z,90.30
2022-12-04T02:38:14.825Z,90.30
2022-12-04T02:40:46.771Z,90.20
2022-12-04T02:43:25.280Z,90.20
2022-12-04T02:46:09.290Z,90.10
2022-12-04T02:48:41.798Z,90.00
2022-12-04T02:51:12.242Z,90.00
2022-12-04T02:53:42.610Z,90.00
2022-12-04T02:56:16.523Z,89.80
2022-12-04T02:58:53.599Z,88.90
2022-12-04T03:01:23.065Z,89.10
2022-12-04T03:03:54.320Z,89.10
2022-12-04T03:06:22.783Z,88.60
2022-12-04T03:09:02.411Z,88.90
2022-12-04T03:11:32.972Z,88.70
2022-12-04T03:14:11.573Z,88.60
2022-12-04T03:16:41.189Z,88.50
2022-12-04T03:19:11.600Z,88.00
2022-12-04T03:21:41.380Z,88.20
2022-12-04T03:24:09.171Z,88.30
2022-12-04T03:26:38.681Z,88.60
2022-12-04T03:29:12.156Z,88.80
2022-12-04T03:31:46.573Z,88.80
2022-12-04T03:34:16.571Z,88.80
2022-12-04T03:36:52.431Z,88.90
2022-12-04T03:39:24.168Z,88.60
2022-12-04T03:42:21.461Z,87.60
2022-12-04T03:45:07.638Z,88.10
2022-12-04T03:48:07.694Z,87.80
2022-12-04T03:51:01.389Z,87.70
2022-12-04T03:53:35.642Z,87.30
2022-12-04T03:56:41.769Z,86.80
2022-12-04T03:59:22.370Z,87.00
2022-12-04T04:01:51.897Z,87.50
2022-12-04T04:04:22.635Z,86.70
2022-12-04T04:07:00.285Z,87.00
2022-12-04T04:09:30.831Z,87.00
2022-12-04T04:12:06.675Z,87.40
2022-12-04T04:14:57.897Z,85.70
2022-12-04T04:17:47.084Z,86.20
2022-12-04T04:20:37.939Z,86.60
2022-12-04T04:23:25.176Z,86.60
2022-12-04T04:25:53.820Z,86.10
2022-12-04T04:28:51.113Z,86.30
2022-12-04T04:31:25.458Z,86.00
2022-12-04T04:33:53.900Z,86.30
2022-12-04T04:36:25.145Z,86.60
2022-12-04T04:39:22.099Z,85.30
2022-12-04T04:41:49.586Z,86.10
2022-12-04T04:44:17.242Z,85.50
2022-12-04T04:46:48.612Z,85.00
2022-12-04T04:49:18.807Z,85.00
2022-12-04T04:51:47.738Z,84.90
2022-12-04T04:54:16.867Z,84.90
2022-12-04T04:56:45.595Z,85.90
2022-12-04T04:59:13.847Z,85.90
2022-12-04T05:01:42.573Z,85.50
2022-12-04T05:04:11.468Z,86.20
2022-12-04T05:06:39.026Z,85.40
2022-12-04T05:09:06.641Z,85.00
2022-12-04T05:11:34.188Z,84.10
2022-12-04T05:14:01.976Z,85.50
2022-12-04T05:16:29.655Z,84.30
2022-12-04T05:19:15.437Z,83.90
2022-12-04T05:21:43.388Z,83.20
2022-12-04T05:24:11.707Z,83.40
2022-12-04T05:26:39.233Z,84.20
2022-12-04T05:29:07.075Z,84.00
2022-12-04T05:31:34.654Z,84.70
2022-12-04T05:34:02.229Z,84.60
2022-12-04T05:36:30.388Z,82.80
2022-12-04T05:38:57.884Z,83.50
2022-12-04T05:41:25.415Z,82.00
2022-12-04T05:43:53.775Z,83.00
2022-12-04T05:46:21.433Z,83.80
2022-12-04T05:48:49.043Z,82.40
2022-12-04T05:51:16.744Z,82.80
2022-12-04T05:53:45.081Z,83.50
2022-12-04T05:56:12.933Z,83.70
2022-12-04T05:58:40.528Z,83.70
2022-12-04T06:01:12.182Z,81.40
2022-12-04T06:03:39.893Z,81.70
2022-12-04T06:06:21.766Z,81.70
2022-12-04T06:08:55.226Z,82.20
2022-12-04T06:11:27.325Z,82.40
2022-12-04T06:13:57.100Z,82.50
2022-12-04T06:16:27.348Z,83.40
2022-12-04T06:18:56.407Z,83.80
2022-12-04T06:21:24.704Z,83.50
2022-12-04T06:23:52.613Z,83.90
2022-12-04T06:26:21.538Z,81.60
2022-12-04T06:28:49.191Z,82.20
2022-12-04T06:31:19.958Z,82.80
2022-12-04T06:33:48.751Z,82.50
2022-12-04T06:36:17.741Z,82.30
2022-12-04T06:38:46.207Z,81.00
2022-12-04T06:41:14.909Z,82.90
2022-12-04T06:43:42.894Z,80.20
2022-12-04T06:46:16.256Z,81.40
2022-12-04T06:48:43.812Z,80.20
2022-12-04T06:51:11.442Z,81.80
2022-12-04T06:53:39.353Z,82.80
2022-12-04T06:56:07.982Z,82.50
2022-12-04T06:58:36.041Z,81.50
2022-12-04T07:01:11.252Z,79.80
2022-12-04T07:03:39.567Z,79.30
2022-12-04T07:06:11.257Z,80.50
2022-12-04T07:08:39.108Z,81.90
2022-12-04T07:11:07.022Z,82.50
2022-12-04T07:13:34.709Z,81.10
2022-12-04T07:16:03.080Z,80.80
2022-12-04T07:18:31.701Z,77.90
2022-12-04T07:21:07.911Z,81.70
2022-12-04T07:23:35.948Z,79.80
2022-12-04T07:26:12.280Z,78.90
2022-12-04T07:28:40.470Z,79.10
2022-12-04T07:31:11.786Z,78.40
2022-12-04T07:33:40.982Z,77.30
2022-12-04T07:36:09.731Z,78.10
2022-12-04T07:38:38.484Z,78.90
2022-12-04T07:41:07.589Z,78.30
2022-12-04T07:43:36.523Z,76.90
2022-12-04T07:46:17.005Z,78.30
2022-12-04T07:48:44.834Z,78.20
2022-12-04T07:51:16.754Z,78.90
2022-12-04T07:53:45.297Z,79.00
2022-12-04T07:56:14.030Z,77.10
2022-12-04T07:58:42.347Z,78.00
2022-12-04T08:01:22.134Z,77.80
2022-12-04T08:03:51.826Z,77.10
2022-12-04T08:06:20.310Z,78.40
2022-12-04T08:08:51.513Z,78.70
2022-12-04T08:11:22.758Z,78.50
2022-12-04T08:13:55.568Z,78.50
2022-12-04T08:16:23.190Z,79.10
2022-12-04T08:18:56.466Z,78.70
2022-12-04T08:21:27.961Z,80.30
2022-12-04T08:24:00.819Z,79.80
2022-12-04T08:26:30.333Z,79.40
2022-12-04T08:28:58.810Z,78.60
2022-12-04T08:31:28.015Z,77.00
2022-12-04T08:33:57.294Z,78.60
2022-12-04T08:36:25.476Z,78.30
2022-12-04T08:38:54.846Z,78.30
2022-12-04T08:41:24.312Z,77.10
2022-12-04T08:43:55.153Z,78.90
2022-12-04T08:46:23.668Z,78.50
2022-12-04T08:48:52.104Z,76.90
2022-12-04T08:51:22.135Z,78.40
2022-12-04T08:53:54.172Z,76.60
2022-12-04T08:56:21.766Z,76.70
2022-12-04T08:58:49.792Z,77.40
2022-12-04T09:01:19.629Z,77.80
2022-12-04T09:03:47.662Z,77.30
2022-12-04T09:06:15.903Z,77.60
2022-12-04T09:08:43.795Z,77.60
2022-12-04T09:11:12.775Z,77.90
2022-12-04T09:13:48.688Z,79.20
2022-12-04T09:16:18.404Z,80.30
2022-12-04T09:18:47.513Z,78.50
2022-12-04T09:21:16.843Z,78.90
2022-12-04T09:23:45.173Z,79.10
2022-12-04T09:26:39.120Z,79.20
2022-12-04T09:29:06.810Z,78.60
2022-12-04T09:31:35.688Z,79.50
2022-12-04T09:34:05.829Z,79.30
2022-12-04T09:36:36.214Z,77.80
2022-12-04T09:39:03.878Z,78.30
2022-12-04T09:41:35.435Z,79.10
2022-12-04T09:44:16.458Z,77.70
2022-12-04T09:46:51.434Z,78.90
2022-12-04T09:49:24.523Z,78.70
2022-12-04T09:51:53.959Z,78.50
2022-12-04T09:54:23.134Z,78.90
2022-12-04T09:56:55.833Z,79.50
2022-12-04T09:59:28.114Z,78.70
2022-12-04T10:02:34.510Z,78.10
2022-12-04T10:05:02.412Z,77.90
2022-12-04T10:07:35.402Z,77.90
2022-12-04T10:10:07.870Z,78.00
2022-12-04T10:12:55.499Z,78.60
2022-12-04T10:15:22.958Z,78.80
2022-12-04T10:18:11.434Z,79.50
2022-12-04T10:20:39.206Z,79.90
2022-12-04T10:23:33.593Z,80.20
2022-12-04T10:26:02.252Z,80.30
2022-12-04T10:28:40.142Z,80.30
2022-12-04T10:31:11.460Z,80.20
2022-12-04T10:33:42.088Z,80.00
2022-12-04T10:36:14.622Z,80.00
2022-12-04T10:38:51.862Z,80.00
2022-12-04T10:41:20.330Z,80.00
2022-12-04T10:43:50.029Z,80.30
2022-12-04T10:46:32.893Z,79.70
2022-12-04T10:49:07.850Z,80.70
2022-12-04T10:51:44.552Z,80.20
2022-12-04T10:54:33.639Z,80.60
2022-12-04T10:57:02.631Z,80.30
2022-12-04T10:59:30.924Z,80.60
2022-12-04T11:02:06.669Z,80.60
2022-12-04T11:04:35.908Z,80.50
2022-12-04T11:07:09.626Z,80.70
2022-12-04T11:09:38.194Z,81.20
2022-12-04T11:12:27.332Z,81.20
2022-12-04T11:15:25.063Z,81.20
2022-12-04T11:17:55.558Z,81.30
2022-12-04T11:20:24.434Z,81.60
2022-12-04T11:22:58.888Z,81.60
2022-12-04T11:25:28.081Z,81.50
2022-12-04T11:27:57.215Z,81.60
2022-12-04T11:30:34.847Z,81.60
2022-12-04T11:33:03.609Z,81.50
2022-12-04T11:35:32.717Z,81.30
2022-12-04T11:38:07.209Z,81.50
2022-12-04T11:40:34.919Z,81.50
2022-12-04T11:43:05.453Z,81.70
2022-12-04T11:45:33.653Z,81.80
2022-12-04T11:48:03.510Z,81.70
2022-12-04T11:50:46.535Z,81.60
2022-12-04T11:53:27.526Z,81.50
2022-12-04T11:56:08.177Z,81.20
2022-12-04T11:58:35.687Z,81.10
2022-12-04T12:01:21.661Z,81.20
2022-12-04T12:04:07.908Z,81.50
2022-12-04T12:06:39.922Z,82.00
2022-12-04T12:09:20.009Z,81.80
2022-12-04T12:11:51.543Z,81.50
2022-12-04T12:14:37.802Z,82.60
2022-12-04T12:17:06.836Z,81.70
2022-12-04T12:19:55.590Z,81.90
2022-12-04T12:22:28.707Z,81.90
2022-12-04T12:25:03.218Z,82.00
2022-12-04T12:27:50.695Z,82.10
2022-12-04T12:30:19.705Z,82.20
2022-12-04T12:32:59.488Z,82.20
2022-12-04T12:35:40.763Z,82.30
2022-12-04T12:38:32.521Z,82.30
2022-12-04T12:41:04.757Z,82.40
2022-12-04T12:43:38.748Z,82.60
2022-12-04T12:46:15.924Z,82.50
2022-12-04T12:49:02.051Z,82.70
2022-12-04T12:51:42.135Z,82.80
2022-12-04T12:54:28.002Z,82.80
2022-12-04T12:56:58.373Z,82.90
2022-12-04T12:59:29.391Z,83.10
2022-12-04T13:02:17.901Z,83.20
2022-12-04T13:04:50.361Z,83.30
2022-12-04T13:07:18.122Z,83.30
2022-12-04T13:09:49.501Z,83.50
2022-12-04T13:12:19.786Z,84.30
2022-12-04T13:14:49.145Z,83.50
2022-12-04T13:17:32.312Z,83.60
2022-12-04T13:20:04.129Z,83.70
2022-12-04T13:22:53.458Z,84.00
2022-12-04T13:25:36.809Z,84.20
2022-12-04T13:28:17.834Z,84.30
2022-12-04T13:30:48.195Z,84.50
2022-12-04T13:33:15.826Z,84.40
2022-12-04T13:35:58.665Z,84.50
2022-12-04T13:38:45.301Z,84.60
2022-12-04T13:41:19.475Z,84.60
2022-12-04T13:43:51.142Z,84.70
2022-12-04T13:46:40.471Z,84.80
2022-12-04T13:49:26.151Z,84.90
2022-12-04T13:51:54.118Z,85.00
2022-12-04T13:54:24.202Z,85.10
2022-12-04T13:56:53.872Z,85.20
2022-12-04T13:59:28.358Z,85.30
2022-12-04T14:01:57.498Z,85.40
2022-12-04T14:04:44.208Z,85.40
2022-12-04T14:07:30.384Z,85.50
2022-12-04T14:09:59.565Z,85.70
2022-12-04T14:12:29.517Z,85.70
2022-12-04T14:14:58.885Z,85.70
2022-12-04T14:17:29.154Z,86.00
2022-12-04T14:20:06.033Z,86.20
2022-12-04T14:22:35.885Z,86.20
2022-12-04T14:25:29.537Z,86.30
2022-12-04T14:27:57.667Z,86.40
2022-12-04T14:30:37.192Z,86.50
2022-12-04T14:33:22.153Z,86.90
2022-12-04T14:35:51.166Z,86.90
2022-12-04T14:38:22.911Z,86.70
2022-12-04T14:40:52.344Z,87.40
2022-12-04T14:43:23.026Z,86.90
2022-12-04T14:45:55.955Z,86.70
2022-12-04T14:48:32.445Z,86.90
2022-12-04T14:51:12.609Z,86.90
2022-12-04T14:53:43.982Z,87.10
2022-12-04T14:56:23.272Z,87.70
2022-12-04T14:58:52.054Z,87.70
2022-12-04T15:01:29.809Z,87.50
2022-12-04T15:04:00.278Z,87.50
2022-12-04T15:06:32.409Z,88.10
2022-12-04T15:09:19.459Z,87.90
2022-12-04T15:12:08.119Z,88.50
2022-12-04T15:14:42.863Z,88.30
2022-12-04T15:17:11.568Z,88.20
2022-12-04T15:19:40.007Z,88.20
2022-12-04T15:22:28.088Z,88.40
2022-12-04T15:24:56.054Z,88.40
2022-12-04T15:27:31.731Z,88.30
2022-12-04T15:30:01.365Z,88.90
2022-12-04T15:32:30.856Z,88.90
2022-12-04T15:35:04.400Z,88.70
2022-12-04T15:37:33.013Z,88.80
2022-12-04T15:40:01.685Z,89.00
2022-12-04T15:42:32.627Z,89.20
2022-12-04T15:45:09.665Z,89.50
2022-12-04T15:47:43.437Z,89.30
2022-12-04T15:50:14.013Z,89.50
2022-12-04T15:52:57.730Z,89.60
2022-12-04T15:55:26.190Z,89.40
2022-12-04T15:57:58.425Z,89.50
2022-12-04T16:00:38.142Z,89.50
2022-12-04T16:03:24.270Z,89.40
2022-12-04T16:06:03.223Z,89.90
2022-12-04T16:08:36.739Z,89.80
2022-12-04T16:11:07.018Z,89.50
2022-12-04T16:13:39.464Z,89.60
2022-12-04T16:16:09.369Z,89.30
2022-12-04T16:18:37.957Z,89.60
2022-12-04T16:21:05.696Z,89.50
2022-12-04T16:23:33.329Z,89.10
2022-12-04T16:26:00.832Z,89.20
2022-12-04T16:28:29.157Z,89.10
2022-12-04T16:30:56.772Z,89.20
2022-12-04T16:33:25.230Z,89.00
2022-12-04T16:35:52.768Z,88.90
2022-12-04T16:38:21.127Z,89.10
2022-12-04T16:40:49.340Z,89.10
2022-12-04T16:43:17.541Z,88.90
2022-12-04T16:45:48.794Z,88.80
2022-12-04T16:48:16.380Z,88.90
2022-12-04T16:50:44.661Z,89.20
2022-12-04T16:53:19.501Z,89.30
2022-12-04T16:55:49.101Z,89.00
2022-12-04T16:58:16.950Z,89.10
2022-12-04T17:00:46.956Z,88.90
2022-12-04T17:03:33.090Z,89.00
2022-12-04T17:06:01.103Z,88.90
2022-12-04T17:08:28.765Z,88.90
2022-12-04T17:10:57.109Z,88.90
2022-12-04T17:13:24.666Z,89.50
2022-12-04T17:15:52.281Z,88.90
2022-12-04T17:18:21.563Z,88.90
2022-12-04T17:20:49.662Z,88.80
2022-12-04T17:23:17.218Z,88.70
2022-12-04T17:25:45.191Z,88.70
2022-12-04T17:28:12.801Z,88.70
2022-12-04T17:30:41.171Z,88.70
2022-12-04T17:33:09.525Z,88.50
2022-12-04T17:35:37.317Z,88.70
2022-12-04T17:38:06.356Z,88.60
2022-12-04T17:40:34.930Z,88.70
2022-12-04T17:43:02.569Z,88.70
2022-12-04T17:45:30.152Z,88.90
2022-12-04T17:47:58.018Z,89.00
2022-12-04T17:50:25.797Z,89.00
2022-12-04T17:52:53.790Z,89.70
2022-12-04T17:55:21.611Z,88.90
2022-12-04T17:57:49.203Z,88.80
2022-12-04T18:00:16.862Z,88.90
2022-12-04T18:02:48.695Z,88.90
2022-12-04T18:05:19.159Z,88.90
2022-12-04T18:07:46.782Z,88.90
2022-12-04T18:10:14.561Z,89.00
2022-12-04T18:12:42.343Z,89.00
2022-12-04T18:15:10.757Z,88.90
2022-12-04T18:17:39.981Z,89.20
2022-12-04T18:20:08.242Z,89.20
2022-12-04T18:22:35.959Z,89.20
2022-12-04T18:25:04.578Z,89.20
2022-12-04T18:27:37.778Z,89.10
2022-12-04T18:30:09.548Z,89.10
2022-12-04T18:32:37.243Z,89.20
2022-12-04T18:35:04.869Z,89.10
2022-12-04T18:37:34.337Z,89.40
2022-12-04T18:40:06.267Z,89.30
2022-12-04T18:42:34.232Z,89.40
2022-12-04T18:45:02.548Z,89.40
2022-12-04T18:47:30.665Z,89.60
2022-12-04T18:49:58.462Z,89.60
2022-12-04T18:52:26.343Z,89.60
2022-12-04T18:54:54.547Z,89.50
2022-12-04T18:57:22.871Z,89.80
2022-12-04T18:59:50.665Z,89.60
2022-12-04T19:02:18.870Z,89.90
2022-12-04T19:04:47.673Z,89.80
2022-12-04T19:07:15.178Z,89.90
2022-12-04T19:12:31.900Z,89.90
2022-12-04T19:14:59.509Z,90.10
2022-12-04T19:17:27.060Z,90.00
2022-12-04T19:19:54.929Z,90.00
2022-12-04T19:22:23.695Z,90.00
2022-12-04T19:24:51.266Z,90.10
2022-12-04T19:27:19.880Z,90.00
2022-12-04T19:29:49.161Z,90.00
2022-12-04T19:32:16.995Z,90.00
2022-12-04T19:34:45.389Z,90.00
2022-12-04T19:37:13.188Z,90.00
2022-12-04T19:39:40.746Z,90.10
2022-12-04T19:42:08.280Z,90.00
2022-12-04T19:44:48.335Z,90.00
2022-12-04T19:47:17.228Z,90.00
2022-12-04T19:49:46.050Z,90.00
2022-12-04T19:52:14.457Z,90.00
2022-12-04T19:54:42.482Z,90.20
2022-12-04T19:57:10.234Z,90.20
2022-12-04T19:59:43.043Z,90.30
2022-12-04T20:02:13.608Z,90.20
2022-12-04T20:04:41.265Z,90.40
2022-12-04T20:07:08.819Z,90.30
2022-12-04T20:09:36.931Z,90.30
2022-12-04T20:12:05.365Z,90.40
2022-12-04T20:14:32.969Z,90.60
2022-12-04T20:17:01.945Z,90.50
2022-12-04T20:19:29.504Z,90.70
2022-12-04T20:21:59.498Z,90.60
2022-12-04T20:24:28.829Z,90.50
2022-12-04T20:26:57.115Z,90.70
2022-12-04T20:29:25.530Z,90.70
2022-12-04T20:31:53.434Z,90.60
2022-12-04T20:34:21.074Z,90.40
2022-12-04T20:36:49.685Z,90.90
2022-12-04T20:39:18.137Z,90.80
2022-12-04T20:41:46.585Z,90.90
2022-12-04T20:44:15.297Z,91.10
2022-12-04T20:46:43.092Z,91.00
2022-12-04T20:49:22.553Z,91.10
2022-12-04T20:51:51.172Z,91.20
2022-12-04T20:54:22.312Z,91.30
2022-12-04T20:56:52.256Z,91.30
2022-12-04T20:59:20.627Z,91.30
2022-12-04T21:01:50.199Z,91.40
2022-12-04T21:04:19.508Z,91.50
2022-12-04T21:06:47.259Z,91.50
2022-12-04T21:09:16.633Z,91.30
2022-12-04T21:11:45.492Z,91.60
2022-12-04T21:14:38.573Z,91.60
2022-12-04T21:17:07.672Z,91.60
2022-12-04T21:19:36.076Z,91.30
2022-12-04T21:22:04.734Z,91.40
2022-12-04T21:24:37.207Z,91.30
2022-12-04T21:27:06.081Z,91.00
2022-12-04T21:29:35.221Z,91.30
2022-12-04T21:32:02.920Z,91.40
2022-12-04T21:34:31.299Z,91.40
2022-12-04T21:36:58.916Z,91.50
2022-12-04T21:39:26.786Z,91.30
2022-12-04T21:42:12.651Z,91.30
2022-12-04T21:44:40.282Z,91.60
2022-12-04T21:47:07.840Z,91.60
2022-12-04T21:49:35.344Z,91.70
2022-12-04T21:52:02.901Z,91.70
2022-12-04T21:54:30.805Z,91.70
2022-12-04T21:56:59.113Z,91.60
2022-12-04T21:59:27.118Z,91.60
2022-12-04T22:01:54.774Z,91.50
2022-12-04T22:04:22.490Z,91.40
2022-12-04T22:06:50.984Z,91.40
2022-12-04T22:09:20.059Z,91.50
2022-12-04T22:11:48.388Z,91.60
2022-12-04T22:14:16.781Z,91.30
2022-12-04T22:16:45.254Z,91.50
2022-12-04T22:19:14.033Z,91.60
2022-12-04T22:21:42.254Z,91.80
2022-12-04T22:24:10.821Z,91.50
2022-12-04T22:26:38.500Z,91.70
2022-12-04T22:29:27.316Z,91.70
2022-12-04T22:31:54.082Z,91.70
2022-12-04T22:34:22.520Z,91.40
2022-12-04T22:36:50.656Z,91.40
2022-12-04T22:39:19.020Z,91.20
2022-12-04T22:41:47.524Z,91.00
2022-12-04T22:44:15.805Z,91.20
2022-12-04T22:46:43.462Z,91.20
2022-12-04T22:49:11.784Z,91.40
2022-12-04T22:51:39.336Z,91.40
2022-12-04T22:54:08.281Z,91.70
2022-12-04T22:56:36.661Z,91.70
2022-12-04T22:59:04.519Z,91.30
2022-12-04T23:01:33.909Z,91.40
2022-12-04T23:04:02.952Z,91.30
2022-12-04T23:06:32.259Z,91.40
2022-12-04T23:09:05.000Z,91.40
2022-12-04T23:11:33.392Z,91.60
2022-12-04T23:14:03.303Z,91.60
2022-12-04T23:16:32.159Z,91.60
2022-12-04T23:19:00.239Z,91.30
2022-12-04T23:21:28.371Z,91.20
2022-12-04T23:23:56.373Z,91.10
2022-12-04T23:26:25.697Z,91.40
2022-12-04T23:28:54.204Z,91.40
2022-12-04T23:31:21.959Z,91.50
2022-12-04T23:33:50.418Z,91.40
2022-12-04T23:36:18.238Z,91.40
2022-12-04T23:38:45.786Z,91.50
2022-12-04T23:41:17.549Z,91.40
2022-12-04T23:43:45.849Z,91.30
2022-12-04T23:46:14.171Z,91.40
2022-12-04T23:48:42.689Z,91.40
2022-12-04T23:51:10.786Z,91.40
2022-12-04T23:53:38.579Z,91.20
2022-12-04T23:56:08.001Z,91.30
2022-12-04T23:58:36.965Z,91.30
